sensor_id;sensor_type;location;lat;lon;timestamp;temperature;humidity
9980;DHT22;5030;51.532;6.766;2022-11-20T00:01:08;-3.10;99.90
9980;DHT22;5030;51.532;6.766;2022-11-20T00:03:34;-3.20;99.90
9980;DHT22;5030;51.532;6.766;2022-11-20T00:06:01;-3.20;99.90
9980;DHT22;5030;51.532;6.766;2022-11-20T00:08:27;-3.20;99.90
9980;DHT22;5030;51.532;6.766;2022-11-20T00:10:52;-3.10;99.90
9980;DHT22;5030;51.532;6.766;2022-11-20T00:13:18;-2.90;99.90
9980;DHT22;5030;51.532;6.766;2022-11-20T00:15:44;-3.10;99.90
9980;DHT22;5030;51.532;6.766;2022-11-20T00:18:09;-3.00;99.90
9980;DHT22;5030;51.532;6.766;2022-11-20T00:20:35;-3.10;99.90
9980;DHT22;5030;51.532;6.766;2022-11-20T00:23:00;-3.30;99.90
9980;DHT22;5030;51.532;6.766;2022-11-20T00:25:26;-3.30;99.90
9980;DHT22;5030;51.532;6.766;2022-11-20T00:27:52;-3.40;99.90
9980;DHT22;5030;51.532;6.766;2022-11-20T00:30:17;-3.40;99.90
9980;DHT22;5030;51.532;6.766;2022-11-20T00:32:43;-3.50;99.90
9980;DHT22;5030;51.532;6.766;2022-11-20T00:35:10;-3.60;99.90
9980;DHT22;5030;51.532;6.766;2022-11-20T00:37:36;-3.40;99.90
9980;DHT22;5030;51.532;6.766;2022-11-20T00:40:01;-3.40;99.90
9980;DHT22;5030;51.532;6.766;2022-11-20T00:42:27;-3.40;99.90
9980;DHT22;5030;51.532;6.766;2022-11-20T00:44:53;-3.50;99.90
9980;DHT22;5030;51.532;6.766;2022-11-20T00:47:18;-3.60;99.90
9980;DHT22;5030;51.532;6.766;2022-11-20T00:49:44;-3.50;99.90
9980;DHT22;5030;51.532;6.766;2022-11-20T00:52:09;-3.50;99.90
9980;DHT22;5030;51.532;6.766;2022-11-20T00:54:35;-3.50;99.90
9980;DHT22;5030;51.532;6.766;2022-11-20T00:57:01;-3.60;99.90
9980;DHT22;5030;51.532;6.766;2022-11-20T00:59:26;-3.60;99.90
9980;DHT22;5030;51.532;6.766;2022-11-20T01:01:52;-3.50;99.90
9980;DHT22;5030;51.532;6.766;2022-11-20T01:04:18;-3.40;99.90
9980;DHT22;5030;51.532;6.766;2022-11-20T01:06:44;-3.50;99.90
9980;DHT22;5030;51.532;6.766;2022-11-20T01:09:12;-3.40;99.90
9980;DHT22;5030;51.532;6.766;2022-11-20T01:11:41;-3.40;99.90
9980;DHT22;5030;51.532;6.766;2022-11-20T01:14:11;-3.40;99.90
9980;DHT22;5030;51.532;6.766;2022-11-20T01:16:39;-3.40;99.90
9980;DHT22;5030;51.532;6.766;2022-11-20T01:19:06;-3.50;99.90
9980;DHT22;5030;51.532;6.766;2022-11-20T01:21:35;-3.50;99.90
9980;DHT22;5030;51.532;6.766;2022-11-20T01:24:02;-3.40;99.90
9980;DHT22;5030;51.532;6.766;2022-11-20T01:26:30;-3.40;99.90
9980;DHT22;5030;51.532;6.766;2022-11-20T01:28:57;-3.50;99.90
9980;DHT22;5030;51.532;6.766;2022-11-20T01:33:56;-3.40;99.90
9980;DHT22;5030;51.532;6.766;2022-11-20T01:36:23;-3.40;99.90
9980;DHT22;5030;51.532;6.766;2022-11-20T01:38:54;-3.60;99.90
9980;DHT22;5030;51.532;6.766;2022-11-20T01:41:21;-3.60;99.90
9980;DHT22;5030;51.532;6.766;2022-11-20T01:44:06;-3.80;99.90
9980;DHT22;5030;51.532;6.766;2022-11-20T01:46:33;-3.80;99.90
9980;DHT22;5030;51.532;6.766;2022-11-20T01:52:00;-3.70;99.90
9980;DHT22;5030;51.532;6.766;2022-11-20T01:54:35;-3.70;99.90
9980;DHT22;5030;51.532;6.766;2022-11-20T01:57:03;-3.70;99.90
9980;DHT22;5030;51.532;6.766;2022-11-20T01:59:30;-3.70;99.90
9980;DHT22;5030;51.532;6.766;2022-11-20T02:01:56;-3.70;99.90
9980;DHT22;5030;51.532;6.766;2022-11-20T02:04:23;-3.70;99.90
9980;DHT22;5030;51.532;6.766;2022-11-20T02:07:00;-3.80;99.90
9980;DHT22;5030;51.532;6.766;2022-11-20T02:09:27;-3.70;99.90
9980;DHT22;5030;51.532;6.766;2022-11-20T02:11:53;-3.70;99.90
9980;DHT22;5030;51.532;6.766;2022-11-20T02:14:19;-3.60;99.90
9980;DHT22;5030;51.532;6.766;2022-11-20T02:16:48;-3.60;99.90
9980;DHT22;5030;51.532;6.766;2022-11-20T02:19:23;-3.70;99.90
9980;DHT22;5030;51.532;6.766;2022-11-20T02:22:14;-3.60;99.90
9980;DHT22;5030;51.532;6.766;2022-11-20T02:24:44;-3.40;99.90
9980;DHT22;5030;51.532;6.766;2022-11-20T02:27:12;-3.40;99.90
9980;DHT22;5030;51.532;6.766;2022-11-20T02:29:51;-3.20;99.90
9980;DHT22;5030;51.532;6.766;2022-11-20T02:32:27;-3.20;99.90
9980;DHT22;5030;51.532;6.766;2022-11-20T02:34:54;-3.20;99.90
9980;DHT22;5030;51.532;6.766;2022-11-20T02:37:20;-3.20;99.90
9980;DHT22;5030;51.532;6.766;2022-11-20T02:39:48;-3.10;99.90
9980;DHT22;5030;51.532;6.766;2022-11-20T02:42:14;-3.00;99.90
9980;DHT22;5030;51.532;6.766;2022-11-20T02:44:40;-3.00;99.90
9980;DHT22;5030;51.532;6.766;2022-11-20T02:47:06;-2.90;99.90
9980;DHT22;5030;51.532;6.766;2022-11-20T02:49:33;-2.80;99.90
9980;DHT22;5030;51.532;6.766;2022-11-20T02:51:59;-2.70;99.90
9980;DHT22;5030;51.532;6.766;2022-11-20T02:54:25;-2.70;99.90
9980;DHT22;5030;51.532;6.766;2022-11-20T02:59:26;-2.50;99.90
9980;DHT22;5030;51.532;6.766;2022-11-20T03:01:52;-2.50;99.90
9980;DHT22;5030;51.532;6.766;2022-11-20T03:04:17;-2.40;99.90
9980;DHT22;5030;51.532;6.766;2022-11-20T03:06:43;-2.40;99.90
9980;DHT22;5030;51.532;6.766;2022-11-20T03:09:08;-2.30;99.90
9980;DHT22;5030;51.532;6.766;2022-11-20T03:11:34;-2.20;99.90
9980;DHT22;5030;51.532;6.766;2022-11-20T03:14:03;-2.20;99.90
9980;DHT22;5030;51.532;6.766;2022-11-20T03:16:30;-2.20;99.90
9980;DHT22;5030;51.532;6.766;2022-11-20T03:18:55;-2.20;99.90
9980;DHT22;5030;51.532;6.766;2022-11-20T03:21:21;-2.10;99.90
9980;DHT22;5030;51.532;6.766;2022-11-20T03:23:47;-2.10;99.90
9980;DHT22;5030;51.532;6.766;2022-11-20T03:26:24;-1.90;99.90
9980;DHT22;5030;51.532;6.766;2022-11-20T03:28:52;-2.00;99.90
9980;DHT22;5030;51.532;6.766;2022-11-20T03:31:24;-2.00;99.90
9980;DHT22;5030;51.532;6.766;2022-11-20T03:33:50;-2.00;99.90
9980;DHT22;5030;51.532;6.766;2022-11-20T03:36:17;-2.00;99.90
9980;DHT22;5030;51.532;6.766;2022-11-20T03:38:44;-2.00;99.90
9980;DHT22;5030;51.532;6.766;2022-11-20T03:41:16;-1.90;99.90
9980;DHT22;5030;51.532;6.766;2022-11-20T03:43:46;-1.90;99.90
9980;DHT22;5030;51.532;6.766;2022-11-20T03:46:11;-1.80;99.90
9980;DHT22;5030;51.532;6.766;2022-11-20T03:48:37;-1.80;99.90
9980;DHT22;5030;51.532;6.766;2022-11-20T03:51:14;-1.80;99.90
9980;DHT22;5030;51.532;6.766;2022-11-20T03:53:41;-1.90;99.90
9980;DHT22;5030;51.532;6.766;2022-11-20T03:56:08;-1.80;99.90
9980;DHT22;5030;51.532;6.766;2022-11-20T03:58:35;-1.80;99.90
9980;DHT22;5030;51.532;6.766;2022-11-20T04:01:11;-1.90;99.90
9980;DHT22;5030;51.532;6.766;2022-11-20T04:03:38;-1.90;99.90
9980;DHT22;5030;51.532;6.766;2022-11-20T04:06:13;-1.80;99.90
9980;DHT22;5030;51.532;6.766;2022-11-20T04:08:39;-1.80;99.90
9980;DHT22;5030;51.532;6.766;2022-11-20T04:11:22;-1.70;99.90
9980;DHT22;5030;51.532;6.766;2022-11-20T04:13:50;-1.70;99.90
9980;DHT22;5030;51.532;6.766;2022-11-20T04:16:16;-1.80;99.90
9980;DHT22;5030;51.532;6.766;2022-11-20T04:18:43;-1.80;99.90
9980;DHT22;5030;51.532;6.766;2022-11-20T04:21:09;-1.90;99.90
9980;DHT22;5030;51.532;6.766;2022-11-20T04:23:35;-1.90;99.90
9980;DHT22;5030;51.532;6.766;2022-11-20T04:26:09;-1.90;99.90
9980;DHT22;5030;51.532;6.766;2022-11-20T04:28:35;-1.90;99.90
9980;DHT22;5030;51.532;6.766;2022-11-20T04:31:05;-2.00;99.90
9980;DHT22;5030;51.532;6.766;2022-11-20T04:33:32;-2.00;99.90
9980;DHT22;5030;51.532;6.766;2022-11-20T04:36:11;-2.00;99.90
9980;DHT22;5030;51.532;6.766;2022-11-20T04:38:37;-2.00;99.90
9980;DHT22;5030;51.532;6.766;2022-11-20T04:41:06;-2.00;99.90
9980;DHT22;5030;51.532;6.766;2022-11-20T04:43:32;-2.10;99.90
9980;DHT22;5030;51.532;6.766;2022-11-20T04:45:59;-2.00;99.90
9980;DHT22;5030;51.532;6.766;2022-11-20T04:48:27;-2.10;99.90
9980;DHT22;5030;51.532;6.766;2022-11-20T04:50:54;-2.10;99.90
9980;DHT22;5030;51.532;6.766;2022-11-20T04:53:20;-2.20;99.90
9980;DHT22;5030;51.532;6.766;2022-11-20T04:55:46;-2.20;99.90
9980;DHT22;5030;51.532;6.766;2022-11-20T04:58:12;-2.10;99.90
9980;DHT22;5030;51.532;6.766;2022-11-20T05:00:39;-2.00;99.90
9980;DHT22;5030;51.532;6.766;2022-11-20T05:03:04;-2.00;99.90
9980;DHT22;5030;51.532;6.766;2022-11-20T05:05:30;-2.00;99.90
9980;DHT22;5030;51.532;6.766;2022-11-20T05:07:59;-2.00;99.90
9980;DHT22;5030;51.532;6.766;2022-11-20T05:10:26;-1.80;99.90
9980;DHT22;5030;51.532;6.766;2022-11-20T05:12:52;-1.80;99.90
9980;DHT22;5030;51.532;6.766;2022-11-20T05:15:18;-1.80;99.90
9980;DHT22;5030;51.532;6.766;2022-11-20T05:17:51;-1.80;99.90
9980;DHT22;5030;51.532;6.766;2022-11-20T05:20:17;-1.70;99.90
9980;DHT22;5030;51.532;6.766;2022-11-20T05:22:44;-1.70;99.90
9980;DHT22;5030;51.532;6.766;2022-11-20T05:25:11;-1.60;99.90
9980;DHT22;5030;51.532;6.766;2022-11-20T05:27:38;-1.60;99.90
9980;DHT22;5030;51.532;6.766;2022-11-20T05:30:04;-1.60;99.90
9980;DHT22;5030;51.532;6.766;2022-11-20T05:32:30;-1.60;99.90
9980;DHT22;5030;51.532;6.766;2022-11-20T05:34:56;-1.60;99.90
9980;DHT22;5030;51.532;6.766;2022-11-20T05:37:23;-1.60;99.90
9980;DHT22;5030;51.532;6.766;2022-11-20T05:39:49;-1.70;99.90
9980;DHT22;5030;51.532;6.766;2022-11-20T05:42:15;-1.70;99.90
9980;DHT22;5030;51.532;6.766;2022-11-20T05:45:00;-1.80;99.90
9980;DHT22;5030;51.532;6.766;2022-11-20T05:47:27;-1.80;99.90
9980;DHT22;5030;51.532;6.766;2022-11-20T05:49:53;-1.90;99.90
9980;DHT22;5030;51.532;6.766;2022-11-20T05:52:19;-1.90;99.90
9980;DHT22;5030;51.532;6.766;2022-11-20T05:54:45;-1.90;99.90
9980;DHT22;5030;51.532;6.766;2022-11-20T05:57:10;-1.90;99.90
9980;DHT22;5030;51.532;6.766;2022-11-20T05:59:36;-1.90;99.90
9980;DHT22;5030;51.532;6.766;2022-11-20T06:02:01;-1.90;99.90
9980;DHT22;5030;51.532;6.766;2022-11-20T06:04:27;-1.90;99.90
9980;DHT22;5030;51.532;6.766;2022-11-20T06:06:53;-1.90;99.90
9980;DHT22;5030;51.532;6.766;2022-11-20T06:09:18;-1.90;99.90
9980;DHT22;5030;51.532;6.766;2022-11-20T06:11:44;-2.00;99.90
9980;DHT22;5030;51.532;6.766;2022-11-20T06:14:11;-1.90;99.90
9980;DHT22;5030;51.532;6.766;2022-11-20T06:16:37;-2.00;99.90
9980;DHT22;5030;51.532;6.766;2022-11-20T06:19:02;-2.10;99.90
9980;DHT22;5030;51.532;6.766;2022-11-20T06:21:28;-2.10;99.90
9980;DHT22;5030;51.532;6.766;2022-11-20T06:23:54;-2.20;99.90
9980;DHT22;5030;51.532;6.766;2022-11-20T06:26:25;-2.20;99.90
9980;DHT22;5030;51.532;6.766;2022-11-20T06:28:52;-2.20;99.90
9980;DHT22;5030;51.532;6.766;2022-11-20T06:31:20;-2.20;99.90
9980;DHT22;5030;51.532;6.766;2022-11-20T06:33:47;-2.20;99.90
9980;DHT22;5030;51.532;6.766;2022-11-20T06:36:15;-2.10;99.90
9980;DHT22;5030;51.532;6.766;2022-11-20T06:38:41;-2.20;99.90
9980;DHT22;5030;51.532;6.766;2022-11-20T06:41:10;-2.30;99.90
9980;DHT22;5030;51.532;6.766;2022-11-20T06:43:36;-2.30;99.90
9980;DHT22;5030;51.532;6.766;2022-11-20T06:46:03;-2.30;99.90
9980;DHT22;5030;51.532;6.766;2022-11-20T06:48:29;-2.40;99.90
9980;DHT22;5030;51.532;6.766;2022-11-20T06:50:56;-2.40;99.90
9980;DHT22;5030;51.532;6.766;2022-11-20T06:53:22;-2.50;99.90
9980;DHT22;5030;51.532;6.766;2022-11-20T06:55:49;-2.50;99.90
9980;DHT22;5030;51.532;6.766;2022-11-20T06:58:16;-2.50;99.90
9980;DHT22;5030;51.532;6.766;2022-11-20T07:00:42;-2.60;99.90
9980;DHT22;5030;51.532;6.766;2022-11-20T07:03:10;-2.40;99.90
9980;DHT22;5030;51.532;6.766;2022-11-20T07:05:36;-2.30;99.90
9980;DHT22;5030;51.532;6.766;2022-11-20T07:08:04;-2.30;99.90
9980;DHT22;5030;51.532;6.766;2022-11-20T07:10:30;-2.20;99.90
9980;DHT22;5030;51.532;6.766;2022-11-20T07:12:56;-2.10;99.90
9980;DHT22;5030;51.532;6.766;2022-11-20T07:15:24;-2.00;99.90
9980;DHT22;5030;51.532;6.766;2022-11-20T07:17:50;-2.00;99.90
9980;DHT22;5030;51.532;6.766;2022-11-20T07:20:16;-1.90;99.90
9980;DHT22;5030;51.532;6.766;2022-11-20T07:22:42;-1.80;99.90
9980;DHT22;5030;51.532;6.766;2022-11-20T07:25:08;-1.60;99.90
9980;DHT22;5030;51.532;6.766;2022-11-20T07:27:34;-1.50;99.90
9980;DHT22;5030;51.532;6.766;2022-11-20T07:30:01;-1.50;99.90
9980;DHT22;5030;51.532;6.766;2022-11-20T07:32:26;-1.50;99.90
9980;DHT22;5030;51.532;6.766;2022-11-20T07:34:52;-1.50;99.90
9980;DHT22;5030;51.532;6.766;2022-11-20T07:37:18;-1.40;99.90
9980;DHT22;5030;51.532;6.766;2022-11-20T07:39:43;-1.50;99.90
9980;DHT22;5030;51.532;6.766;2022-11-20T07:42:09;-1.60;99.90
9980;DHT22;5030;51.532;6.766;2022-11-20T07:44:35;-1.60;99.90
9980;DHT22;5030;51.532;6.766;2022-11-20T07:47:01;-1.60;99.90
9980;DHT22;5030;51.532;6.766;2022-11-20T07:49:27;-1.60;99.90
9980;DHT22;5030;51.532;6.766;2022-11-20T07:51:53;-1.70;99.90
9980;DHT22;5030;51.532;6.766;2022-11-20T07:54:22;-1.70;99.90
9980;DHT22;5030;51.532;6.766;2022-11-20T07:56:48;-1.70;99.90
9980;DHT22;5030;51.532;6.766;2022-11-20T07:59:14;-1.70;99.90
9980;DHT22;5030;51.532;6.766;2022-11-20T08:01:41;-1.70;99.90
9980;DHT22;5030;51.532;6.766;2022-11-20T08:04:08;-1.60;99.90
9980;DHT22;5030;51.532;6.766;2022-11-20T08:06:34;-1.70;99.90
9980;DHT22;5030;51.532;6.766;2022-11-20T08:08:59;-1.50;99.90
9980;DHT22;5030;51.532;6.766;2022-11-20T08:11:25;-1.60;99.90
9980;DHT22;5030;51.532;6.766;2022-11-20T08:14:09;-1.70;99.90
9980;DHT22;5030;51.532;6.766;2022-11-20T08:16:43;-1.70;99.90
9980;DHT22;5030;51.532;6.766;2022-11-20T08:19:08;-1.70;99.90
9980;DHT22;5030;51.532;6.766;2022-11-20T08:21:34;-1.70;99.90
9980;DHT22;5030;51.532;6.766;2022-11-20T08:24:00;-1.70;99.90
9980;DHT22;5030;51.532;6.766;2022-11-20T08:26:26;-1.70;99.90
9980;DHT22;5030;51.532;6.766;2022-11-20T08:28:56;-1.60;99.90
9980;DHT22;5030;51.532;6.766;2022-11-20T08:31:23;-1.30;99.90
9980;DHT22;5030;51.532;6.766;2022-11-20T08:33:48;-1.40;99.90
9980;DHT22;5030;51.532;6.766;2022-11-20T08:36:14;-1.40;99.90
9980;DHT22;5030;51.532;6.766;2022-11-20T08:38:40;-1.40;99.90
9980;DHT22;5030;51.532;6.766;2022-11-20T08:41:06;-1.40;99.90
9980;DHT22;5030;51.532;6.766;2022-11-20T08:43:59;-1.50;99.90
9980;DHT22;5030;51.532;6.766;2022-11-20T08:46:27;-1.40;99.90
9980;DHT22;5030;51.532;6.766;2022-11-20T08:48:53;-1.40;99.90
9980;DHT22;5030;51.532;6.766;2022-11-20T08:51:20;-1.30;99.90
9980;DHT22;5030;51.532;6.766;2022-11-20T08:53:46;-1.30;99.90
9980;DHT22;5030;51.532;6.766;2022-11-20T08:56:14;-1.20;99.90
9980;DHT22;5030;51.532;6.766;2022-11-20T08:58:40;-1.20;99.90
9980;DHT22;5030;51.532;6.766;2022-11-20T09:01:06;-1.20;99.90
9980;DHT22;5030;51.532;6.766;2022-11-20T09:03:32;-1.10;99.90
9980;DHT22;5030;51.532;6.766;2022-11-20T09:06:00;-1.10;99.90
9980;DHT22;5030;51.532;6.766;2022-11-20T09:08:28;-0.90;99.90
9980;DHT22;5030;51.532;6.766;2022-11-20T09:10:55;-0.80;99.90
9980;DHT22;5030;51.532;6.766;2022-11-20T09:13:22;-0.60;99.90
9980;DHT22;5030;51.532;6.766;2022-11-20T09:15:56;-0.40;99.90
9980;DHT22;5030;51.532;6.766;2022-11-20T09:18:23;-0.30;99.90
9980;DHT22;5030;51.532;6.766;2022-11-20T09:20:49;-0.10;99.90
9980;DHT22;5030;51.532;6.766;2022-11-20T09:23:15;0.00;99.90
9980;DHT22;5030;51.532;6.766;2022-11-20T09:25:42;0.20;99.90
9980;DHT22;5030;51.532;6.766;2022-11-20T09:28:07;0.10;99.90
9980;DHT22;5030;51.532;6.766;2022-11-20T09:30:33;0.10;99.90
9980;DHT22;5030;51.532;6.766;2022-11-20T09:32:59;0.10;99.90
9980;DHT22;5030;51.532;6.766;2022-11-20T09:35:25;0.10;99.90
9980;DHT22;5030;51.532;6.766;2022-11-20T09:37:50;0.10;99.90
9980;DHT22;5030;51.532;6.766;2022-11-20T09:40:27;0.00;99.90
9980;DHT22;5030;51.532;6.766;2022-11-20T09:54:21;-0.10;99.90
9980;DHT22;5030;51.532;6.766;2022-11-20T09:56:54;-0.10;99.90
9980;DHT22;5030;51.532;6.766;2022-11-20T09:59:36;-0.10;99.90
9980;DHT22;5030;51.532;6.766;2022-11-20T10:04:44;-0.10;99.90
9980;DHT22;5030;51.532;6.766;2022-11-20T10:07:14;0.00;99.90
9980;DHT22;5030;51.532;6.766;2022-11-20T10:09:49;0.10;99.90
9980;DHT22;5030;51.532;6.766;2022-11-20T10:15:25;0.30;99.90
9980;DHT22;5030;51.532;6.766;2022-11-20T10:20:56;0.70;99.90
9980;DHT22;5030;51.532;6.766;2022-11-20T10:32:10;1.70;99.90
9980;DHT22;5030;51.532;6.766;2022-11-20T10:37:26;2.20;99.90
9980;DHT22;5030;51.532;6.766;2022-11-20T10:42:46;2.60;99.90
9980;DHT22;5030;51.532;6.766;2022-11-20T10:47:54;2.90;99.90
9980;DHT22;5030;51.532;6.766;2022-11-20T10:50:21;3.10;99.90
9980;DHT22;5030;51.532;6.766;2022-11-20T10:56:59;3.50;99.90
9980;DHT22;5030;51.532;6.766;2022-11-20T11:02:12;4.00;99.90
9980;DHT22;5030;51.532;6.766;2022-11-20T11:04:44;4.10;99.90
9980;DHT22;5030;51.532;6.766;2022-11-20T11:07:16;4.20;99.90
9980;DHT22;5030;51.532;6.766;2022-11-20T11:09:49;4.00;99.90
9980;DHT22;5030;51.532;6.766;2022-11-20T11:12:15;3.80;99.90
9980;DHT22;5030;51.532;6.766;2022-11-20T11:14:53;3.70;99.90
9980;DHT22;5030;51.532;6.766;2022-11-20T11:17:30;3.60;99.90
9980;DHT22;5030;51.532;6.766;2022-11-20T11:20:16;3.70;99.90
9980;DHT22;5030;51.532;6.766;2022-11-20T11:22:51;3.70;99.90
9980;DHT22;5030;51.532;6.766;2022-11-20T11:27:59;3.80;99.90
9980;DHT22;5030;51.532;6.766;2022-11-20T11:30:26;3.90;99.90
9980;DHT22;5030;51.532;6.766;2022-11-20T11:33:08;3.80;99.90
9980;DHT22;5030;51.532;6.766;2022-11-20T11:35:44;3.90;99.90
9980;DHT22;5030;51.532;6.766;2022-11-20T11:38:16;4.10;99.90
9980;DHT22;5030;51.532;6.766;2022-11-20T11:40:43;4.20;99.90
9980;DHT22;5030;51.532;6.766;2022-11-20T11:43:26;4.30;99.90
9980;DHT22;5030;51.532;6.766;2022-11-20T11:48:40;4.80;99.90
9980;DHT22;5030;51.532;6.766;2022-11-20T11:51:08;4.90;99.90
9980;DHT22;5030;51.532;6.766;2022-11-20T11:53:40;5.00;99.90
9980;DHT22;5030;51.532;6.766;2022-11-20T11:56:11;5.00;99.90
9980;DHT22;5030;51.532;6.766;2022-11-20T11:58:47;5.00;99.90
9980;DHT22;5030;51.532;6.766;2022-11-20T12:03:52;5.20;99.90
9980;DHT22;5030;51.532;6.766;2022-11-20T12:06:21;5.30;99.90
9980;DHT22;5030;51.532;6.766;2022-11-20T12:09:02;5.00;99.90
9980;DHT22;5030;51.532;6.766;2022-11-20T12:14:21;4.90;99.90
9980;DHT22;5030;51.532;6.766;2022-11-20T12:16:50;4.80;99.90
9980;DHT22;5030;51.532;6.766;2022-11-20T12:19:16;4.80;99.90
9980;DHT22;5030;51.532;6.766;2022-11-20T12:21:48;4.70;99.90
9980;DHT22;5030;51.532;6.766;2022-11-20T12:27:03;4.60;99.90
9980;DHT22;5030;51.532;6.766;2022-11-20T12:37:45;4.70;99.90
9980;DHT22;5030;51.532;6.766;2022-11-20T12:40:32;4.80;99.90
9980;DHT22;5030;51.532;6.766;2022-11-20T12:43:19;4.90;99.90
9980;DHT22;5030;51.532;6.766;2022-11-20T12:48:43;5.00;99.90
9980;DHT22;5030;51.532;6.766;2022-11-20T13:07:28;5.20;99.90
9980;DHT22;5030;51.532;6.766;2022-11-20T13:09:54;5.30;99.90
9980;DHT22;5030;51.532;6.766;2022-11-20T13:12:36;5.30;99.90
9980;DHT22;5030;51.532;6.766;2022-11-20T13:15:22;5.30;99.90
9980;DHT22;5030;51.532;6.766;2022-11-20T13:17:55;5.40;99.90
9980;DHT22;5030;51.532;6.766;2022-11-20T13:20:25;5.30;99.90
9980;DHT22;5030;51.532;6.766;2022-11-20T13:22:55;5.20;99.90
9980;DHT22;5030;51.532;6.766;2022-11-20T13:25:33;5.30;99.90
9980;DHT22;5030;51.532;6.766;2022-11-20T13:30:35;5.20;99.90
9980;DHT22;5030;51.532;6.766;2022-11-20T13:35:32;4.90;99.90
9980;DHT22;5030;51.532;6.766;2022-11-20T13:38:08;4.80;99.90
9980;DHT22;5030;51.532;6.766;2022-11-20T13:40:38;4.80;99.90
9980;DHT22;5030;51.532;6.766;2022-11-20T13:45:36;4.80;99.90
9980;DHT22;5030;51.532;6.766;2022-11-20T13:48:04;4.70;99.90
9980;DHT22;5030;51.532;6.766;2022-11-20T13:50:46;4.60;99.90
9980;DHT22;5030;51.532;6.766;2022-11-20T13:53:48;4.60;99.90
9980;DHT22;5030;51.532;6.766;2022-11-20T14:02:14;4.50;99.90
9980;DHT22;5030;51.532;6.766;2022-11-20T14:04:44;4.40;99.90
9980;DHT22;5030;51.532;6.766;2022-11-20T14:07:11;4.40;99.90
9980;DHT22;5030;51.532;6.766;2022-11-20T14:09:37;4.30;99.90
9980;DHT22;5030;51.532;6.766;2022-11-20T14:12:13;4.30;99.90
9980;DHT22;5030;51.532;6.766;2022-11-20T14:14:49;4.30;99.90
9980;DHT22;5030;51.532;6.766;2022-11-20T14:19:55;4.20;99.90
9980;DHT22;5030;51.532;6.766;2022-11-20T14:22:25;4.30;99.90
9980;DHT22;5030;51.532;6.766;2022-11-20T14:27:36;4.20;99.90
9980;DHT22;5030;51.532;6.766;2022-11-20T14:30:03;4.20;99.90
9980;DHT22;5030;51.532;6.766;2022-11-20T14:32:30;4.20;99.90
9980;DHT22;5030;51.532;6.766;2022-11-20T14:35:01;4.20;99.90
9980;DHT22;5030;51.532;6.766;2022-11-20T14:37:33;4.20;99.90
9980;DHT22;5030;51.532;6.766;2022-11-20T14:39:59;4.40;99.90
9980;DHT22;5030;51.532;6.766;2022-11-20T14:42:28;4.40;99.90
9980;DHT22;5030;51.532;6.766;2022-11-20T14:44:58;4.30;99.90
9980;DHT22;5030;51.532;6.766;2022-11-20T14:47:29;4.20;99.90
9980;DHT22;5030;51.532;6.766;2022-11-20T14:49:55;4.30;99.90
9980;DHT22;5030;51.532;6.766;2022-11-20T14:52:26;4.30;99.90
9980;DHT22;5030;51.532;6.766;2022-11-20T14:55:01;4.30;99.90
9980;DHT22;5030;51.532;6.766;2022-11-20T14:57:34;4.20;99.90
9980;DHT22;5030;51.532;6.766;2022-11-20T15:02:43;4.20;99.90
9980;DHT22;5030;51.532;6.766;2022-11-20T15:05:09;4.20;99.90
9980;DHT22;5030;51.532;6.766;2022-11-20T15:07:41;4.20;99.90
9980;DHT22;5030;51.532;6.766;2022-11-20T15:12:45;4.10;99.90
9980;DHT22;5030;51.532;6.766;2022-11-20T15:15:15;4.00;99.90
9980;DHT22;5030;51.532;6.766;2022-11-20T15:17:42;4.10;99.90
9980;DHT22;5030;51.532;6.766;2022-11-20T15:20:15;4.10;99.90
9980;DHT22;5030;51.532;6.766;2022-11-20T15:22:42;4.20;99.90
9980;DHT22;5030;51.532;6.766;2022-11-20T15:25:15;4.20;99.90
9980;DHT22;5030;51.532;6.766;2022-11-20T15:27:42;4.20;99.90
9980;DHT22;5030;51.532;6.766;2022-11-20T15:30:13;4.30;99.90
9980;DHT22;5030;51.532;6.766;2022-11-20T15:32:39;4.20;99.90
9980;DHT22;5030;51.532;6.766;2022-11-20T15:35:06;4.20;99.90
9980;DHT22;5030;51.532;6.766;2022-11-20T15:37:31;4.20;99.90
9980;DHT22;5030;51.532;6.766;2022-11-20T15:39:57;4.20;99.90
9980;DHT22;5030;51.532;6.766;2022-11-20T15:42:22;4.10;99.90
9980;DHT22;5030;51.532;6.766;2022-11-20T15:44:48;4.10;99.90
9980;DHT22;5030;51.532;6.766;2022-11-20T15:47:14;4.20;99.90
9980;DHT22;5030;51.532;6.766;2022-11-20T15:49:39;4.20;99.90
9980;DHT22;5030;51.532;6.766;2022-11-20T15:52:05;4.30;99.90
9980;DHT22;5030;51.532;6.766;2022-11-20T15:54:30;4.20;99.90
9980;DHT22;5030;51.532;6.766;2022-11-20T15:56:56;4.20;99.90
9980;DHT22;5030;51.532;6.766;2022-11-20T15:59:22;4.20;99.90
9980;DHT22;5030;51.532;6.766;2022-11-20T16:01:47;4.10;99.90
9980;DHT22;5030;51.532;6.766;2022-11-20T16:04:15;4.10;99.90
9980;DHT22;5030;51.532;6.766;2022-11-20T16:06:41;4.10;99.90
9980;DHT22;5030;51.532;6.766;2022-11-20T16:09:07;4.10;99.90
9980;DHT22;5030;51.532;6.766;2022-11-20T16:11:33;4.00;99.90
9980;DHT22;5030;51.532;6.766;2022-11-20T16:13:59;3.90;99.90
9980;DHT22;5030;51.532;6.766;2022-11-20T16:16:43;4.00;99.90
9980;DHT22;5030;51.532;6.766;2022-11-20T16:19:11;3.90;99.90
9980;DHT22;5030;51.532;6.766;2022-11-20T16:21:37;3.90;99.90
9980;DHT22;5030;51.532;6.766;2022-11-20T16:24:05;3.90;99.90
9980;DHT22;5030;51.532;6.766;2022-11-20T16:26:32;4.00;99.90
9980;DHT22;5030;51.532;6.766;2022-11-20T16:28:59;3.90;99.90
9980;DHT22;5030;51.532;6.766;2022-11-20T16:31:26;3.90;99.90
9980;DHT22;5030;51.532;6.766;2022-11-20T16:33:56;3.80;99.90
9980;DHT22;5030;51.532;6.766;2022-11-20T16:36:24;3.80;99.90
9980;DHT22;5030;51.532;6.766;2022-11-20T16:38:55;3.80;99.90
9980;DHT22;5030;51.532;6.766;2022-11-20T16:41:22;3.70;99.90
9980;DHT22;5030;51.532;6.766;2022-11-20T16:43:56;3.90;99.90
9980;DHT22;5030;51.532;6.766;2022-11-20T16:46:28;3.90;99.90
9980;DHT22;5030;51.532;6.766;2022-11-20T16:48:55;3.90;99.90
9980;DHT22;5030;51.532;6.766;2022-11-20T16:51:22;4.00;99.90
9980;DHT22;5030;51.532;6.766;2022-11-20T16:53:49;4.10;99.90
9980;DHT22;5030;51.532;6.766;2022-11-20T16:56:20;4.10;99.90
9980;DHT22;5030;51.532;6.766;2022-11-20T16:58:47;4.10;99.90
9980;DHT22;5030;51.532;6.766;2022-11-20T17:01:16;4.10;99.90
9980;DHT22;5030;51.532;6.766;2022-11-20T17:03:43;4.10;99.90
9980;DHT22;5030;51.532;6.766;2022-11-20T17:06:17;4.20;99.90
9980;DHT22;5030;51.532;6.766;2022-11-20T17:08:44;4.10;99.90
9980;DHT22;5030;51.532;6.766;2022-11-20T17:11:12;4.20;99.90
9980;DHT22;5030;51.532;6.766;2022-11-20T17:13:39;4.20;99.90
9980;DHT22;5030;51.532;6.766;2022-11-20T17:16:10;4.20;99.90
9980;DHT22;5030;51.532;6.766;2022-11-20T17:18:37;4.20;99.90
9980;DHT22;5030;51.532;6.766;2022-11-20T17:21:04;4.30;99.90
9980;DHT22;5030;51.532;6.766;2022-11-20T17:23:38;4.20;99.90
9980;DHT22;5030;51.532;6.766;2022-11-20T17:26:13;4.20;99.90
9980;DHT22;5030;51.532;6.766;2022-11-20T17:28:44;4.20;99.90
9980;DHT22;5030;51.532;6.766;2022-11-20T17:31:14;4.30;99.90
9980;DHT22;5030;51.532;6.766;2022-11-20T17:33:41;4.30;99.90
9980;DHT22;5030;51.532;6.766;2022-11-20T17:36:09;4.40;99.90
9980;DHT22;5030;51.532;6.766;2022-11-20T17:38:37;4.50;99.90
9980;DHT22;5030;51.532;6.766;2022-11-20T17:43:28;4.50;99.90
9980;DHT22;5030;51.532;6.766;2022-11-20T17:45:54;4.40;99.90
9980;DHT22;5030;51.532;6.766;2022-11-20T17:48:21;4.50;99.90
9980;DHT22;5030;51.532;6.766;2022-11-20T17:50:47;4.50;99.90
9980;DHT22;5030;51.532;6.766;2022-11-20T17:53:12;4.50;99.90
9980;DHT22;5030;51.532;6.766;2022-11-20T17:55:40;4.50;99.90
9980;DHT22;5030;51.532;6.766;2022-11-20T17:58:27;4.60;99.90
9980;DHT22;5030;51.532;6.766;2022-11-20T18:00:52;4.60;99.90
9980;DHT22;5030;51.532;6.766;2022-11-20T18:03:18;4.50;99.90
9980;DHT22;5030;51.532;6.766;2022-11-20T18:05:44;4.60;99.90
9980;DHT22;5030;51.532;6.766;2022-11-20T18:08:10;4.60;99.90
9980;DHT22;5030;51.532;6.766;2022-11-20T18:10:36;4.60;99.90
9980;DHT22;5030;51.532;6.766;2022-11-20T18:13:02;4.70;99.90
9980;DHT22;5030;51.532;6.766;2022-11-20T18:15:27;4.60;99.90
9980;DHT22;5030;51.532;6.766;2022-11-20T18:17:54;4.70;99.90